sensor_id;sensor_type;location;lat;lon;timestamp;P1;durP1;ratioP1;P2;durP2;ratioP2
29848;SDS011;16728;50.832;5.590;2022-11-12T00:00:14;6.85;;;4.45;;
29848;SDS011;16728;50.832;5.590;2022-11-12T00:03:16;6.68;;;4.40;;
29848;SDS011;16728;50.832;5.590;2022-11-12T00:06:18;5.65;;;4.28;;
29848;SDS011;16728;50.832;5.590;2022-11-12T00:09:20;5.93;;;4.35;;
29848;SDS011;16728;50.832;5.590;2022-11-12T00:12:21;6.78;;;4.90;;
29848;SDS011;16728;50.832;5.590;2022-11-12T00:15:23;8.85;;;5.78;;
29848;SDS011;16728;50.832;5.590;2022-11-12T00:18:26;6.13;;;5.32;;
29848;SDS011;16728;50.832;5.590;2022-11-12T00:21:28;8.23;;;4.75;;
29848;SDS011;16728;50.832;5.590;2022-11-12T00:24:30;6.70;;;4.88;;
29848;SDS011;16728;50.832;5.590;2022-11-12T00:27:32;7.28;;;5.55;;
29848;SDS011;16728;50.832;5.590;2022-11-12T00:30:38;5.80;;;4.90;;
29848;SDS011;16728;50.832;5.590;2022-11-12T00:33:41;6.97;;;5.32;;
29848;SDS011;16728;50.832;5.590;2022-11-12T00:36:44;7.72;;;5.28;;
29848;SDS011;16728;50.832;5.590;2022-11-12T00:39:46;8.13;;;5.15;;
29848;SDS011;16728;50.832;5.590;2022-11-12T00:42:49;7.95;;;5.20;;
29848;SDS011;16728;50.832;5.590;2022-11-12T00:45:52;9.00;;;5.22;;
29848;SDS011;16728;50.832;5.590;2022-11-12T00:48:54;5.75;;;4.50;;
29848;SDS011;16728;50.832;5.590;2022-11-12T00:51:56;7.68;;;5.20;;
29848;SDS011;16728;50.832;5.590;2022-11-12T00:54:58;12.18;;;6.28;;
29848;SDS011;16728;50.832;5.590;2022-11-12T00:58:00;28.55;;;15.73;;
29848;SDS011;16728;50.832;5.590;2022-11-12T01:01:09;45.20;;;24.98;;
29848;SDS011;16728;50.832;5.590;2022-11-12T01:04:13;58.80;;;30.33;;
29848;SDS011;16728;50.832;5.590;2022-11-12T01:07:15;47.08;;;26.48;;
29848;SDS011;16728;50.832;5.590;2022-11-12T01:10:17;38.35;;;21.10;;
29848;SDS011;16728;50.832;5.590;2022-11-12T01:13:18;53.45;;;27.38;;
29848;SDS011;16728;50.832;5.590;2022-11-12T01:16:21;46.30;;;25.55;;
29848;SDS011;16728;50.832;5.590;2022-11-12T01:19:25;32.42;;;17.92;;
29848;SDS011;16728;50.832;5.590;2022-11-12T01:22:27;34.90;;;20.58;;
29848;SDS011;16728;50.832;5.590;2022-11-12T01:25:29;39.38;;;22.48;;
29848;SDS011;16728;50.832;5.590;2022-11-12T01:28:30;50.03;;;27.63;;
29848;SDS011;16728;50.832;5.590;2022-11-12T01:31:33;23.92;;;14.98;;
29848;SDS011;16728;50.832;5.590;2022-11-12T01:34:36;42.75;;;22.75;;
29848;SDS011;16728;50.832;5.590;2022-11-12T01:37:38;52.05;;;27.27;;
29848;SDS011;16728;50.832;5.590;2022-11-12T01:40:40;43.00;;;22.50;;
29848;SDS011;16728;50.832;5.590;2022-11-12T01:43:43;47.95;;;25.17;;
29848;SDS011;16728;50.832;5.590;2022-11-12T01:50:26;37.97;;;21.08;;
29848;SDS011;16728;50.832;5.590;2022-11-12T01:53:36;42.50;;;21.65;;
29848;SDS011;16728;50.832;5.590;2022-11-12T01:56:42;43.90;;;23.45;;
29848;SDS011;16728;50.832;5.590;2022-11-12T01:59:45;37.22;;;20.08;;
29848;SDS011;16728;50.832;5.590;2022-11-12T02:02:54;37.08;;;21.00;;
29848;SDS011;16728;50.832;5.590;2022-11-12T02:06:00;27.00;;;17.48;;
29848;SDS011;16728;50.832;5.590;2022-11-12T02:09:05;31.73;;;17.30;;
29848;SDS011;16728;50.832;5.590;2022-11-12T02:12:07;27.33;;;17.10;;
29848;SDS011;16728;50.832;5.590;2022-11-12T02:15:29;26.25;;;15.93;;
29848;SDS011;16728;50.832;5.590;2022-11-12T02:18:31;26.30;;;15.65;;
29848;SDS011;16728;50.832;5.590;2022-11-12T02:21:33;25.25;;;12.75;;
29848;SDS011;16728;50.832;5.590;2022-11-12T02:24:36;16.15;;;10.90;;
29848;SDS011;16728;50.832;5.590;2022-11-12T02:27:38;11.63;;;7.82;;
29848;SDS011;16728;50.832;5.590;2022-11-12T02:30:41;14.35;;;9.77;;
29848;SDS011;16728;50.832;5.590;2022-11-12T02:33:45;14.20;;;8.52;;
29848;SDS011;16728;50.832;5.590;2022-11-12T02:36:47;10.80;;;7.47;;
29848;SDS011;16728;50.832;5.590;2022-11-12T02:39:49;9.63;;;6.53;;
29848;SDS011;16728;50.832;5.590;2022-11-12T02:42:51;12.75;;;8.48;;
29848;SDS011;16728;50.832;5.590;2022-11-12T02:45:53;9.98;;;6.95;;
29848;SDS011;16728;50.832;5.590;2022-11-12T02:48:55;9.63;;;6.55;;
29848;SDS011;16728;50.832;5.590;2022-11-12T02:51:56;10.23;;;6.25;;
29848;SDS011;16728;50.832;5.590;2022-11-12T02:54:58;9.65;;;6.05;;
29848;SDS011;16728;50.832;5.590;2022-11-12T02:58:01;10.80;;;6.15;;
29848;SDS011;16728;50.832;5.590;2022-11-12T03:01:03;11.52;;;5.70;;
29848;SDS011;16728;50.832;5.590;2022-11-12T03:04:05;6.95;;;5.15;;
29848;SDS011;16728;50.832;5.590;2022-11-12T03:07:07;7.65;;;5.30;;
29848;SDS011;16728;50.832;5.590;2022-11-12T03:10:09;9.23;;;5.18;;
29848;SDS011;16728;50.832;5.590;2022-11-12T03:13:11;8.73;;;5.50;;
29848;SDS011;16728;50.832;5.590;2022-11-12T03:16:14;5.27;;;4.77;;
29848;SDS011;16728;50.832;5.590;2022-11-12T03:19:15;7.35;;;5.20;;
29848;SDS011;16728;50.832;5.590;2022-11-12T03:22:17;7.80;;;5.40;;
29848;SDS011;16728;50.832;5.590;2022-11-12T03:25:19;5.72;;;4.60;;
29848;SDS011;16728;50.832;5.590;2022-11-12T03:28:21;5.93;;;4.47;;
29848;SDS011;16728;50.832;5.590;2022-11-12T03:31:23;5.15;;;4.10;;
29848;SDS011;16728;50.832;5.590;2022-11-12T03:34:25;4.53;;;3.85;;
29848;SDS011;16728;50.832;5.590;2022-11-12T03:37:26;7.07;;;4.38;;
29848;SDS011;16728;50.832;5.590;2022-11-12T03:40:29;6.22;;;4.55;;
29848;SDS011;16728;50.832;5.590;2022-11-12T03:43:31;10.00;;;4.50;;
29848;SDS011;16728;50.832;5.590;2022-11-12T03:46:33;6.28;;;4.38;;
29848;SDS011;16728;50.832;5.590;2022-11-12T03:49:40;4.82;;;4.13;;
29848;SDS011;16728;50.832;5.590;2022-11-12T03:52:45;7.47;;;4.18;;
29848;SDS011;16728;50.832;5.590;2022-11-12T03:55:49;7.28;;;4.60;;
29848;SDS011;16728;50.832;5.590;2022-11-12T03:58:51;7.65;;;4.70;;
29848;SDS011;16728;50.832;5.590;2022-11-12T04:01:52;8.02;;;5.45;;
29848;SDS011;16728;50.832;5.590;2022-11-12T04:04:54;9.13;;;4.75;;
29848;SDS011;16728;50.832;5.590;2022-11-12T04:08:16;8.85;;;4.47;;
29848;SDS011;16728;50.832;5.590;2022-11-12T04:11:38;12.48;;;4.93;;
29848;SDS011;16728;50.832;5.590;2022-11-12T04:14:40;7.00;;;5.15;;
29848;SDS011;16728;50.832;5.590;2022-11-12T04:17:41;10.40;;;5.45;;
29848;SDS011;16728;50.832;5.590;2022-11-12T04:21:02;10.70;;;4.97;;
29848;SDS011;16728;50.832;5.590;2022-11-12T04:27:44;10.70;;;5.22;;
29848;SDS011;16728;50.832;5.590;2022-11-12T04:30:46;5.28;;;4.45;;
29848;SDS011;16728;50.832;5.590;2022-11-12T04:33:48;11.93;;;4.47;;
29848;SDS011;16728;50.832;5.590;2022-11-12T04:36:50;7.15;;;4.90;;
29848;SDS011;16728;50.832;5.590;2022-11-12T04:39:51;13.98;;;5.13;;
29848;SDS011;16728;50.832;5.590;2022-11-12T04:42:53;12.85;;;4.68;;
29848;SDS011;16728;50.832;5.590;2022-11-12T04:46:14;9.43;;;5.55;;
29848;SDS011;16728;50.832;5.590;2022-11-12T04:49:16;10.20;;;5.30;;
29848;SDS011;16728;50.832;5.590;2022-11-12T04:52:18;10.30;;;5.20;;
29848;SDS011;16728;50.832;5.590;2022-11-12T04:55:20;7.90;;;5.20;;
29848;SDS011;16728;50.832;5.590;2022-11-12T04:58:22;11.63;;;5.65;;
29848;SDS011;16728;50.832;5.590;2022-11-12T05:04:27;12.82;;;5.75;;
29848;SDS011;16728;50.832;5.590;2022-11-12T05:07:30;7.95;;;5.10;;
29848;SDS011;16728;50.832;5.590;2022-11-12T05:10:33;10.98;;;5.50;;
29848;SDS011;16728;50.832;5.590;2022-11-12T05:13:35;10.75;;;5.82;;
29848;SDS011;16728;50.832;5.590;2022-11-12T05:16:37;11.98;;;5.78;;
29848;SDS011;16728;50.832;5.590;2022-11-12T05:19:39;12.15;;;5.80;;
29848;SDS011;16728;50.832;5.590;2022-11-12T05:22:41;10.35;;;5.03;;
29848;SDS011;16728;50.832;5.590;2022-11-12T05:25:54;9.98;;;5.70;;
29848;SDS011;16728;50.832;5.590;2022-11-12T05:28:56;7.60;;;6.25;;
29848;SDS011;16728;50.832;5.590;2022-11-12T05:31:58;12.68;;;5.60;;
29848;SDS011;16728;50.832;5.590;2022-11-12T05:35:00;11.63;;;6.25;;
29848;SDS011;16728;50.832;5.590;2022-11-12T05:38:04;16.90;;;8.02;;
29848;SDS011;16728;50.832;5.590;2022-11-12T05:41:06;21.02;;;11.25;;
29848;SDS011;16728;50.832;5.590;2022-11-12T05:44:09;19.98;;;10.05;;
29848;SDS011;16728;50.832;5.590;2022-11-12T05:47:10;11.75;;;7.68;;
29848;SDS011;16728;50.832;5.590;2022-11-12T05:50:12;10.35;;;7.13;;
29848;SDS011;16728;50.832;5.590;2022-11-12T05:53:14;13.27;;;6.55;;
29848;SDS011;16728;50.832;5.590;2022-11-12T05:56:16;16.73;;;7.60;;
29848;SDS011;16728;50.832;5.590;2022-11-12T05:59:18;20.02;;;8.05;;
29848;SDS011;16728;50.832;5.590;2022-11-12T06:02:20;10.98;;;5.90;;
29848;SDS011;16728;50.832;5.590;2022-11-12T06:05:22;12.27;;;5.82;;
29848;SDS011;16728;50.832;5.590;2022-11-12T06:08:24;20.67;;;9.30;;
29848;SDS011;16728;50.832;5.590;2022-11-12T06:11:26;20.90;;;7.37;;
29848;SDS011;16728;50.832;5.590;2022-11-12T06:14:28;12.88;;;6.93;;
29848;SDS011;16728;50.832;5.590;2022-11-12T06:17:30;10.60;;;5.65;;
29848;SDS011;16728;50.832;5.590;2022-11-12T06:20:33;11.18;;;5.28;;
29848;SDS011;16728;50.832;5.590;2022-11-12T06:23:36;8.70;;;5.07;;
29848;SDS011;16728;50.832;5.590;2022-11-12T06:26:37;8.52;;;4.50;;
29848;SDS011;16728;50.832;5.590;2022-11-12T06:29:39;9.63;;;5.10;;
29848;SDS011;16728;50.832;5.590;2022-11-12T06:32:44;9.15;;;4.18;;
29848;SDS011;16728;50.832;5.590;2022-11-12T06:35:54;6.28;;;4.10;;
29848;SDS011;16728;50.832;5.590;2022-11-12T06:38:59;7.45;;;4.30;;
29848;SDS011;16728;50.832;5.590;2022-11-12T06:42:01;15.32;;;4.70;;
29848;SDS011;16728;50.832;5.590;2022-11-12T06:45:03;11.27;;;4.83;;
29848;SDS011;16728;50.832;5.590;2022-11-12T06:48:05;12.23;;;4.70;;
29848;SDS011;16728;50.832;5.590;2022-11-12T06:51:08;6.93;;;4.47;;
29848;SDS011;16728;50.832;5.590;2022-11-12T06:54:12;7.88;;;5.05;;
29848;SDS011;16728;50.832;5.590;2022-11-12T06:57:14;11.95;;;5.13;;
29848;SDS011;16728;50.832;5.590;2022-11-12T07:00:16;8.55;;;4.82;;
29848;SDS011;16728;50.832;5.590;2022-11-12T07:03:18;9.30;;;5.05;;
29848;SDS011;16728;50.832;5.590;2022-11-12T07:06:19;9.73;;;4.57;;
29848;SDS011;16728;50.832;5.590;2022-11-12T07:09:21;13.30;;;5.13;;
29848;SDS011;16728;50.832;5.590;2022-11-12T07:12:23;8.60;;;5.53;;
29848;SDS011;16728;50.832;5.590;2022-11-12T07:15:25;9.70;;;5.00;;
29848;SDS011;16728;50.832;5.590;2022-11-12T07:18:27;23.83;;;5.20;;
29848;SDS011;16728;50.832;5.590;2022-11-12T07:21:29;10.68;;;6.25;;
29848;SDS011;16728;50.832;5.590;2022-11-12T07:24:32;20.10;;;6.03;;
29848;SDS011;16728;50.832;5.590;2022-11-12T07:27:34;22.42;;;6.63;;
29848;SDS011;16728;50.832;5.590;2022-11-12T07:30:36;21.30;;;6.55;;
29848;SDS011;16728;50.832;5.590;2022-11-12T07:33:37;26.00;;;7.60;;
29848;SDS011;16728;50.832;5.590;2022-11-12T07:36:42;17.42;;;6.53;;
29848;SDS011;16728;50.832;5.590;2022-11-12T07:39:44;13.15;;;6.50;;
29848;SDS011;16728;50.832;5.590;2022-11-12T07:42:46;17.92;;;6.90;;
29848;SDS011;16728;50.832;5.590;2022-11-12T07:45:48;20.17;;;7.55;;
29848;SDS011;16728;50.832;5.590;2022-11-12T07:48:50;15.65;;;7.85;;
29848;SDS011;16728;50.832;5.590;2022-11-12T07:51:53;13.73;;;7.10;;
29848;SDS011;16728;50.832;5.590;2022-11-12T07:54:55;18.70;;;7.80;;
29848;SDS011;16728;50.832;5.590;2022-11-12T07:57:58;20.48;;;7.15;;
29848;SDS011;16728;50.832;5.590;2022-11-12T08:01:10;18.93;;;7.87;;
29848;SDS011;16728;50.832;5.590;2022-11-12T08:04:26;15.40;;;7.53;;
29848;SDS011;16728;50.832;5.590;2022-11-12T08:07:27;19.60;;;8.07;;
29848;SDS011;16728;50.832;5.590;2022-11-12T08:10:30;16.88;;;9.10;;
29848;SDS011;16728;50.832;5.590;2022-11-12T08:13:31;14.68;;;7.05;;
29848;SDS011;16728;50.832;5.590;2022-11-12T08:16:33;18.08;;;8.07;;
29848;SDS011;16728;50.832;5.590;2022-11-12T08:19:35;18.27;;;8.32;;
29848;SDS011;16728;50.832;5.590;2022-11-12T08:22:37;13.20;;;8.05;;
29848;SDS011;16728;50.832;5.590;2022-11-12T08:25:39;17.02;;;10.02;;
29848;SDS011;16728;50.832;5.590;2022-11-12T08:28:41;29.13;;;9.73;;
29848;SDS011;16728;50.832;5.590;2022-11-12T08:31:44;15.45;;;11.10;;
29848;SDS011;16728;50.832;5.590;2022-11-12T08:34:46;15.30;;;10.52;;
29848;SDS011;16728;50.832;5.590;2022-11-12T08:37:48;18.85;;;8.95;;
29848;SDS011;16728;50.832;5.590;2022-11-12T08:40:50;16.60;;;9.10;;
29848;SDS011;16728;50.832;5.590;2022-11-12T08:43:52;20.57;;;9.83;;
29848;SDS011;16728;50.832;5.590;2022-11-12T08:46:54;19.45;;;8.60;;
29848;SDS011;16728;50.832;5.590;2022-11-12T08:49:56;12.90;;;7.65;;
29848;SDS011;16728;50.832;5.590;2022-11-12T08:53:01;12.75;;;7.90;;
29848;SDS011;16728;50.832;5.590;2022-11-12T08:56:04;12.23;;;8.00;;
29848;SDS011;16728;50.832;5.590;2022-11-12T08:59:06;15.18;;;8.60;;
29848;SDS011;16728;50.832;5.590;2022-11-12T09:02:12;11.35;;;9.13;;
29848;SDS011;16728;50.832;5.590;2022-11-12T09:05:14;15.10;;;8.77;;
29848;SDS011;16728;50.832;5.590;2022-11-12T09:08:17;16.48;;;9.27;;
29848;SDS011;16728;50.832;5.590;2022-11-12T09:11:21;17.52;;;9.45;;
29848;SDS011;16728;50.832;5.590;2022-11-12T09:14:22;12.30;;;8.63;;
29848;SDS011;16728;50.832;5.590;2022-11-12T09:17:24;15.35;;;8.70;;
29848;SDS011;16728;50.832;5.590;2022-11-12T09:20:26;17.48;;;8.20;;
29848;SDS011;16728;50.832;5.590;2022-11-12T09:23:29;14.47;;;7.93;;
29848;SDS011;16728;50.832;5.590;2022-11-12T09:26:31;14.93;;;8.20;;
29848;SDS011;16728;50.832;5.590;2022-11-12T09:29:33;11.38;;;7.82;;
29848;SDS011;16728;50.832;5.590;2022-11-12T09:32:34;9.93;;;7.07;;
29848;SDS011;16728;50.832;5.590;2022-11-12T09:35:36;16.00;;;7.53;;
29848;SDS011;16728;50.832;5.590;2022-11-12T09:38:38;14.23;;;6.93;;
29848;SDS011;16728;50.832;5.590;2022-11-12T09:41:40;14.93;;;6.20;;
29848;SDS011;16728;50.832;5.590;2022-11-12T09:44:43;8.00;;;6.77;;
29848;SDS011;16728;50.832;5.590;2022-11-12T09:47:51;11.65;;;6.68;;
29848;SDS011;16728;50.832;5.590;2022-11-12T09:50:58;8.70;;;5.75;;
29848;SDS011;16728;50.832;5.590;2022-11-12T09:54:05;13.38;;;7.80;;
29848;SDS011;16728;50.832;5.590;2022-11-12T09:57:25;8.35;;;5.45;;
29848;SDS011;16728;50.832;5.590;2022-11-12T10:00:27;7.40;;;5.35;;
29848;SDS011;16728;50.832;5.590;2022-11-12T10:03:33;6.32;;;4.72;;
29848;SDS011;16728;50.832;5.590;2022-11-12T10:06:44;7.50;;;4.18;;
29848;SDS011;16728;50.832;5.590;2022-11-12T10:10:02;5.28;;;4.05;;
29848;SDS011;16728;50.832;5.590;2022-11-12T10:25:59;7.50;;;4.00;;
29848;SDS011;16728;50.832;5.590;2022-11-12T10:32:12;9.15;;;4.28;;
29848;SDS011;16728;50.832;5.590;2022-11-12T10:35:17;11.50;;;7.43;;
29848;SDS011;16728;50.832;5.590;2022-11-12T10:38:22;8.02;;;5.15;;
29848;SDS011;16728;50.832;5.590;2022-11-12T10:41:29;10.23;;;4.93;;
29848;SDS011;16728;50.832;5.590;2022-11-12T10:44:33;5.60;;;4.20;;
29848;SDS011;16728;50.832;5.590;2022-11-12T10:47:38;5.45;;;4.25;;
29848;SDS011;16728;50.832;5.590;2022-11-12T10:50:43;6.97;;;4.47;;
29848;SDS011;16728;50.832;5.590;2022-11-12T10:53:45;6.00;;;4.10;;
29848;SDS011;16728;50.832;5.590;2022-11-12T10:56:47;3.95;;;3.53;;
29848;SDS011;16728;50.832;5.590;2022-11-12T11:03:33;8.55;;;3.72;;
29848;SDS011;16728;50.832;5.590;2022-11-12T11:07:20;5.28;;;3.50;;
29848;SDS011;16728;50.832;5.590;2022-11-12T11:10:26;4.50;;;3.38;;
29848;SDS011;16728;50.832;5.590;2022-11-12T11:13:32;3.30;;;3.00;;
29848;SDS011;16728;50.832;5.590;2022-11-12T11:16:47;4.55;;;3.53;;
29848;SDS011;16728;50.832;5.590;2022-11-12T11:19:53;4.90;;;2.58;;
29848;SDS011;16728;50.832;5.590;2022-11-12T11:22:56;3.50;;;2.60;;
29848;SDS011;16728;50.832;5.590;2022-11-12T11:26:28;4.80;;;2.83;;
29848;SDS011;16728;50.832;5.590;2022-11-12T11:36:35;3.55;;;2.40;;
29848;SDS011;16728;50.832;5.590;2022-11-12T11:40:13;5.43;;;2.60;;
29848;SDS011;16728;50.832;5.590;2022-11-12T11:50:19;3.42;;;2.22;;
29848;SDS011;16728;50.832;5.590;2022-11-12T11:53:35;2.88;;;2.40;;
29848;SDS011;16728;50.832;5.590;2022-11-12T11:56:47;4.28;;;2.40;;
29848;SDS011;16728;50.832;5.590;2022-11-12T12:00:01;3.92;;;2.08;;
29848;SDS011;16728;50.832;5.590;2022-11-12T12:06:23;2.88;;;2.10;;
29848;SDS011;16728;50.832;5.590;2022-11-12T12:16:35;2.22;;;1.98;;
29848;SDS011;16728;50.832;5.590;2022-11-12T12:23:16;3.63;;;1.60;;
29848;SDS011;16728;50.832;5.590;2022-11-12T12:26:34;4.00;;;1.70;;
29848;SDS011;16728;50.832;5.590;2022-11-12T12:29:43;2.80;;;2.30;;
29848;SDS011;16728;50.832;5.590;2022-11-12T12:32:56;2.28;;;2.08;;
29848;SDS011;16728;50.832;5.590;2022-11-12T12:36:04;2.97;;;1.98;;
29848;SDS011;16728;50.832;5.590;2022-11-12T12:39:17;3.22;;;1.65;;
29848;SDS011;16728;50.832;5.590;2022-11-12T12:42:25;2.22;;;1.42;;
29848;SDS011;16728;50.832;5.590;2022-11-12T12:48:44;2.47;;;1.85;;
29848;SDS011;16728;50.832;5.590;2022-11-12T12:51:47;2.35;;;1.80;;
29848;SDS011;16728;50.832;5.590;2022-11-12T12:54:56;2.78;;;1.80;;
29848;SDS011;16728;50.832;5.590;2022-11-12T12:58:00;2.90;;;2.15;;
29848;SDS011;16728;50.832;5.590;2022-11-12T13:01:03;1.60;;;1.50;;
29848;SDS011;16728;50.832;5.590;2022-11-12T13:04:09;4.82;;;1.52;;
29848;SDS011;16728;50.832;5.590;2022-11-12T13:07:12;3.23;;;1.60;;
29848;SDS011;16728;50.832;5.590;2022-11-12T13:13:47;1.70;;;1.53;;
29848;SDS011;16728;50.832;5.590;2022-11-12T13:22:58;2.42;;;1.70;;
29848;SDS011;16728;50.832;5.590;2022-11-12T13:29:40;7.07;;;1.90;;
29848;SDS011;16728;50.832;5.590;2022-11-12T13:35:49;3.00;;;2.15;;
29848;SDS011;16728;50.832;5.590;2022-11-12T13:38:51;3.85;;;2.45;;
29848;SDS011;16728;50.832;5.590;2022-11-12T13:42:01;4.20;;;2.20;;
29848;SDS011;16728;50.832;5.590;2022-11-12T13:45:33;3.72;;;2.30;;
29848;SDS011;16728;50.832;5.590;2022-11-12T13:49:01;3.63;;;2.25;;
29848;SDS011;16728;50.832;5.590;2022-11-12T13:52:07;4.35;;;2.30;;
29848;SDS011;16728;50.832;5.590;2022-11-12T13:55:13;2.67;;;2.17;;
29848;SDS011;16728;50.832;5.590;2022-11-12T13:58:24;3.28;;;2.75;;
29848;SDS011;16728;50.832;5.590;2022-11-12T14:01:33;7.88;;;3.83;;
29848;SDS011;16728;50.832;5.590;2022-11-12T14:04:35;6.30;;;4.20;;
29848;SDS011;16728;50.832;5.590;2022-11-12T14:21:03;5.15;;;3.42;;
29848;SDS011;16728;50.832;5.590;2022-11-12T14:24:08;7.78;;;4.60;;
29848;SDS011;16728;50.832;5.590;2022-11-12T14:30:44;11.43;;;6.85;;
29848;SDS011;16728;50.832;5.590;2022-11-12T14:33:45;11.63;;;7.25;;
29848;SDS011;16728;50.832;5.590;2022-11-12T14:36:48;12.00;;;7.63;;
29848;SDS011;16728;50.832;5.590;2022-11-12T14:39:50;16.02;;;9.23;;
29848;SDS011;16728;50.832;5.590;2022-11-12T14:42:52;21.25;;;9.75;;
29848;SDS011;16728;50.832;5.590;2022-11-12T14:45:55;17.10;;;10.00;;
29848;SDS011;16728;50.832;5.590;2022-11-12T14:55:22;17.10;;;10.25;;
29848;SDS011;16728;50.832;5.590;2022-11-12T14:58:26;21.70;;;11.13;;
29848;SDS011;16728;50.832;5.590;2022-11-12T15:01:30;18.05;;;10.70;;
29848;SDS011;16728;50.832;5.590;2022-11-12T15:04:58;15.70;;;11.02;;
29848;SDS011;16728;50.832;5.590;2022-11-12T15:08:02;15.60;;;10.10;;
29848;SDS011;16728;50.832;5.590;2022-11-12T15:14:44;19.25;;;10.43;;
29848;SDS011;16728;50.832;5.590;2022-11-12T15:17:54;18.45;;;13.45;;
29848;SDS011;16728;50.832;5.590;2022-11-12T15:21:22;17.10;;;13.23;;
29848;SDS011;16728;50.832;5.590;2022-11-12T15:27:33;19.08;;;11.90;;
29848;SDS011;16728;50.832;5.590;2022-11-12T15:30:43;22.48;;;13.32;;
29848;SDS011;16728;50.832;5.590;2022-11-12T15:37:33;38.45;;;30.23;;
29848;SDS011;16728;50.832;5.590;2022-11-12T15:40:43;57.60;;;35.20;;
29848;SDS011;16728;50.832;5.590;2022-11-12T15:43:46;47.83;;;30.83;;
29848;SDS011;16728;50.832;5.590;2022-11-12T15:46:48;51.80;;;31.83;;
29848;SDS011;16728;50.832;5.590;2022-11-12T15:49:51;58.03;;;34.45;;
29848;SDS011;16728;50.832;5.590;2022-11-12T15:52:54;66.72;;;37.20;;
29848;SDS011;16728;50.832;5.590;2022-11-12T15:55:56;69.95;;;38.03;;
29848;SDS011;16728;50.832;5.590;2022-11-12T15:58:58;60.88;;;32.97;;
29848;SDS011;16728;50.832;5.590;2022-11-12T16:02:00;56.28;;;30.95;;
29848;SDS011;16728;50.832;5.590;2022-11-12T16:05:01;53.67;;;28.85;;
29848;SDS011;16728;50.832;5.590;2022-11-12T16:08:03;47.95;;;26.73;;
29848;SDS011;16728;50.832;5.590;2022-11-12T16:11:07;35.17;;;19.15;;
29848;SDS011;16728;50.832;5.590;2022-11-12T16:14:30;30.00;;;18.35;;
29848;SDS011;16728;50.832;5.590;2022-11-12T16:17:32;28.60;;;17.23;;
29848;SDS011;16728;50.832;5.590;2022-11-12T16:20:34;38.00;;;22.13;;
29848;SDS011;16728;50.832;5.590;2022-11-12T16:23:36;39.70;;;23.92;;
29848;SDS011;16728;50.832;5.590;2022-11-12T16:26:38;36.67;;;21.42;;
29848;SDS011;16728;50.832;5.590;2022-11-12T16:29:40;29.05;;;17.08;;
29848;SDS011;16728;50.832;5.590;2022-11-12T16:32:42;26.23;;;15.25;;
29848;SDS011;16728;50.832;5.590;2022-11-12T16:35:44;20.27;;;13.90;;
29848;SDS011;16728;50.832;5.590;2022-11-12T16:38:47;24.75;;;14.27;;
29848;SDS011;16728;50.832;5.590;2022-11-12T16:41:49;19.45;;;12.73;;
29848;SDS011;16728;50.832;5.590;2022-11-12T16:44:51;13.32;;;11.80;;
29848;SDS011;16728;50.832;5.590;2022-11-12T16:47:54;22.23;;;12.13;;
29848;SDS011;16728;50.832;5.590;2022-11-12T16:50:57;79.88;;;47.08;;
29848;SDS011;16728;50.832;5.590;2022-11-12T16:53:59;113.90;;;63.60;;
29848;SDS011;16728;50.832;5.590;2022-11-12T16:57:01;101.60;;;54.53;;
29848;SDS011;16728;50.832;5.590;2022-11-12T17:00:04;136.52;;;70.45;;
29848;SDS011;16728;50.832;5.590;2022-11-12T17:03:09;174.75;;;92.97;;
29848;SDS011;16728;50.832;5.590;2022-11-12T17:06:12;338.15;;;165.70;;
29848;SDS011;16728;50.832;5.590;2022-11-12T17:09:14;182.45;;;91.30;;
29848;SDS011;16728;50.832;5.590;2022-11-12T17:12:17;125.37;;;66.97;;
29848;SDS011;16728;50.832;5.590;2022-11-12T17:15:19;79.65;;;45.10;;
29848;SDS011;16728;50.832;5.590;2022-11-12T17:18:20;146.15;;;84.38;;
29848;SDS011;16728;50.832;5.590;2022-11-12T17:21:22;237.95;;;135.98;;
29848;SDS011;16728;50.832;5.590;2022-11-12T17:24:25;271.25;;;145.27;;
29848;SDS011;16728;50.832;5.590;2022-11-12T17:27:27;222.90;;;120.45;;
29848;SDS011;16728;50.832;5.590;2022-11-12T17:30:29;272.70;;;141.70;;
29848;SDS011;16728;50.832;5.590;2022-11-12T17:33:30;155.07;;;87.10;;
29848;SDS011;16728;50.832;5.590;2022-11-12T17:36:33;67.60;;;40.80;;
29848;SDS011;16728;50.832;5.590;2022-11-12T17:39:42;61.35;;;34.28;;
29848;SDS011;16728;50.832;5.590;2022-11-12T17:42:44;40.83;;;23.13;;
29848;SDS011;16728;50.832;5.590;2022-11-12T17:45:49;25.75;;;16.65;;
29848;SDS011;16728;50.832;5.590;2022-11-12T17:48:53;29.73;;;16.73;;
29848;SDS011;16728;50.832;5.590;2022-11-12T17:51:55;26.98;;;16.55;;
29848;SDS011;16728;50.832;5.590;2022-11-12T17:54:56;29.40;;;18.45;;
29848;SDS011;16728;50.832;5.590;2022-11-12T17:57:58;28.33;;;18.42;;
29848;SDS011;16728;50.832;5.590;2022-11-12T18:01:04;32.50;;;20.52;;
29848;SDS011;16728;50.832;5.590;2022-11-12T18:04:12;29.67;;;21.15;;
29848;SDS011;16728;50.832;5.590;2022-11-12T18:07:13;32.53;;;22.20;;
29848;SDS011;16728;50.832;5.590;2022-11-12T18:10:16;38.83;;;24.63;;
29848;SDS011;16728;50.832;5.590;2022-11-12T18:13:19;48.85;;;30.15;;
29848;SDS011;16728;50.832;5.590;2022-11-12T18:16:23;43.58;;;26.88;;
29848;SDS011;16728;50.832;5.590;2022-11-12T18:19:26;37.03;;;24.15;;
29848;SDS011;16728;50.832;5.590;2022-11-12T18:22:28;30.60;;;20.85;;
29848;SDS011;16728;50.832;5.590;2022-11-12T18:25:29;44.83;;;28.33;;
29848;SDS011;16728;50.832;5.590;2022-11-12T18:28:31;50.00;;;30.10;;
29848;SDS011;16728;50.832;5.590;2022-11-12T18:31:33;52.85;;;32.55;;
29848;SDS011;16728;50.832;5.590;2022-11-12T18:34:35;99.70;;;64.70;;
29848;SDS011;16728;50.832;5.590;2022-11-12T18:37:42;103.07;;;63.60;;
29848;SDS011;16728;50.832;5.590;2022-11-12T18:40:44;107.80;;;68.25;;
29848;SDS011;16728;50.832;5.590;2022-11-12T18:43:46;183.55;;;115.80;;
29848;SDS011;16728;50.832;5.590;2022-11-12T18:46:47;108.15;;;64.50;;
29848;SDS011;16728;50.832;5.590;2022-11-12T18:49:49;79.68;;;51.97;;
29848;SDS011;16728;50.832;5.590;2022-11-12T18:52:51;74.70;;;48.25;;
29848;SDS011;16728;50.832;5.590;2022-11-12T18:55:54;127.15;;;78.40;;
29848;SDS011;16728;50.832;5.590;2022-11-12T18:58:56;61.97;;;39.15;;
29848;SDS011;16728;50.832;5.590;2022-11-12T19:01:58;49.08;;;32.63;;
29848;SDS011;16728;50.832;5.590;2022-11-12T19:05:00;34.55;;;22.77;;
29848;SDS011;16728;50.832;5.590;2022-11-12T19:08:02;37.10;;;25.27;;
29848;SDS011;16728;50.832;5.590;2022-11-12T19:11:05;24.83;;;17.05;;
29848;SDS011;16728;50.832;5.590;2022-11-12T19:14:09;25.25;;;16.75;;
29848;SDS011;16728;50.832;5.590;2022-11-12T19:17:11;30.92;;;20.15;;
29848;SDS011;16728;50.832;5.590;2022-11-12T19:20:13;24.75;;;16.75;;
29848;SDS011;16728;50.832;5.590;2022-11-12T19:23:14;26.95;;;17.08;;
29848;SDS011;16728;50.832;5.590;2022-11-12T19:26:16;25.80;;;16.95;;
29848;SDS011;16728;50.832;5.590;2022-11-12T19:29:18;22.08;;;15.95;;
29848;SDS011;16728;50.832;5.590;2022-11-12T19:32:20;22.05;;;15.63;;
29848;SDS011;16728;50.832;5.590;2022-11-12T19:35:23;26.00;;;16.15;;
29848;SDS011;16728;50.832;5.590;2022-11-12T19:38:25;25.25;;;16.33;;
29848;SDS011;16728;50.832;5.590;2022-11-12T19:41:28;23.48;;;15.25;;
29848;SDS011;16728;50.832;5.590;2022-11-12T19:44:30;22.90;;;14.35;;
29848;SDS011;16728;50.832;5.590;2022-11-12T19:47:32;21.70;;;14.55;;
29848;SDS011;16728;50.832;5.590;2022-11-12T19:50:35;20.57;;;15.83;;
29848;SDS011;16728;50.832;5.590;2022-11-12T19:53:40;24.13;;;17.67;;
29848;SDS011;16728;50.832;5.590;2022-11-12T19:56:45;24.42;;;17.83;;
29848;SDS011;16728;50.832;5.590;2022-11-12T19:59:47;32.50;;;21.50;;
29848;SDS011;16728;50.832;5.590;2022-11-12T20:02:48;29.35;;;21.23;;